Time;durP1;ratioP1;P1;durP2;ratioP2;P2;SDS_P1;SDS_P2;PMS_P1;PMS_P2;Temp;Humidity;BMP_temperature;BMP_pressure;BME280_temperature;BME280_humidity;BME280_pressure;Samples;Min_cycle;Max_cycle;Signal;HPM_P1;HPM_P2
2021/09/02 00:00:47;;;;;;;8.88;6.05;;;25.40;44.40;;;;;;5071632;28;20021;-53
2021/09/02 00:03:13;;;;;;;9.15;5.60;;;25.40;44.40;;;;;;5071496;28;20017;-53
2021/09/02 00:05:38;;;;;;;8.48;5.28;;;25.40;44.40;;;;;;5071602;28;20055;-54
2021/09/02 00:08:04;;;;;;;11.75;6.18;;;25.30;44.40;;;;;;5071585;28;20097;-55
2021/09/02 00:10:30;;;;;;;8.30;5.80;;;25.40;44.50;;;;;;5071990;28;20056;-54
2021/09/02 00:12:56;;;;;;;8.82;6.15;;;25.30;44.50;;;;;;5071468;28;20064;-53
2021/09/02 00:15:22;;;;;;;9.73;6.28;;;25.30;44.50;;;;;;5071728;28;20082;-55
2021/09/02 00:17:47;;;;;;;9.10;6.10;;;25.30;44.50;;;;;;5071703;28;20027;-55
2021/09/02 00:20:14;;;;;;;9.10;5.55;;;25.30;44.50;;;;;;5071649;28;20465;-56
2021/09/02 00:22:40;;;;;;;11.25;6.63;;;25.30;44.60;;;;;;5071724;28;20040;-56
2021/09/02 00:25:06;;;;;;;7.57;5.85;;;25.30;44.70;;;;;;5070916;28;20036;-51
2021/09/02 00:27:32;;;;;;;8.07;5.93;;;25.30;44.70;;;;;;5071799;28;20025;-55
2021/09/02 00:29:57;;;;;;;8.63;5.90;;;25.30;44.70;;;;;;5071012;28;20105;-55
2021/09/02 00:32:23;;;;;;;10.82;6.05;;;25.20;44.70;;;;;;5071872;28;20458;-55
2021/09/02 00:34:49;;;;;;;8.05;6.05;;;25.30;44.80;;;;;;5070761;28;20032;-54
2021/09/02 00:37:14;;;;;;;8.05;5.90;;;25.20;44.80;;;;;;5071359;28;20381;-56
2021/09/02 00:39:40;;;;;;;9.07;5.90;;;25.20;44.80;;;;;;5053555;28;20157;-56
2021/09/02 00:42:06;;;;;;;9.15;6.13;;;25.20;44.80;;;;;;5071050;28;20449;-56
2021/09/02 00:44:39;;;;;;;9.85;6.47;;;25.20;44.80;;;;;;5071476;28;20133;-55
2021/09/02 00:47:07;;;;;;;9.27;5.63;;;25.20;44.90;;;;;;5071176;28;20369;-55
2021/09/02 00:49:33;;;;;;;7.50;5.70;;;25.20;44.90;;;;;;5071593;28;20385;-55
2021/09/02 00:52:09;;;;;;;9.38;5.88;;;25.20;44.90;;;;;;5071151;28;20036;-55
2021/09/02 00:54:35;;;;;;;7.40;5.95;;;25.20;45.00;;;;;;5053105;28;20123;-56
2021/09/02 00:57:01;;;;;;;9.25;6.15;;;25.10;45.00;;;;;;5054237;28;20037;-53
2021/09/02 00:59:27;;;;;;;7.40;5.60;;;25.10;45.00;;;;;;5075580;28;20028;-54
2021/09/02 01:01:54;;;;;;;9.98;6.28;;;25.10;45.00;;;;;;5074988;28;20024;-55
2021/09/02 01:04:21;;;;;;;7.78;5.78;;;25.10;45.10;;;;;;5075274;28;20037;-55
2021/09/02 01:06:49;;;;;;;8.23;6.43;;;25.10;45.10;;;;;;5074901;28;20029;-55
2021/09/02 01:09:15;;;;;;;8.07;5.85;;;25.00;45.10;;;;;;5074999;28;20074;-52
2021/09/02 01:11:41;;;;;;;7.45;5.68;;;25.00;45.10;;;;;;5075681;28;20094;-56
2021/09/02 01:14:06;;;;;;;9.93;5.68;;;25.00;45.10;;;;;;5056758;28;20464;-55
2021/09/02 01:16:32;;;;;;;6.97;5.65;;;25.00;45.10;;;;;;5057188;28;20021;-56
2021/09/02 01:18:57;;;;;;;9.27;5.97;;;25.00;45.20;;;;;;5056644;28;20031;-56
2021/09/02 01:21:23;;;;;;;9.88;5.97;;;25.00;45.20;;;;;;5057229;28;20024;-55
2021/09/02 01:23:49;;;;;;;8.13;6.15;;;25.00;45.30;;;;;;5074306;28;20059;-54
2021/09/02 01:26:22;;;;;;;8.20;6.18;;;25.00;45.30;;;;;;5074872;28;20047;-56
2021/09/02 01:28:48;;;;;;;10.77;5.65;;;25.00;45.50;;;;;;5074588;28;20035;-56
2021/09/02 01:31:17;;;;;;;8.80;6.85;;;25.00;45.40;;;;;;5074951;28;20033;-54
2021/09/02 01:33:48;;;;;;;11.32;7.35;;;25.00;45.50;;;;;;5074525;28;20106;-51
2021/09/02 01:36:13;;;;;;;10.07;6.70;;;24.90;45.50;;;;;;5074835;28;20048;-55
2021/09/02 01:38:39;;;;;;;9.80;6.10;;;24.90;45.50;;;;;;5074598;28;20028;-56
2021/09/02 01:41:05;;;;;;;9.30;7.07;;;25.00;45.60;;;;;;5056150;28;20398;-52
2021/09/02 01:43:30;;;;;;;8.57;6.25;;;25.00;45.60;;;;;;5074596;28;20031;-54
2021/09/02 01:45:56;;;;;;;7.68;5.82;;;25.00;45.70;;;;;;5073815;28;20070;-53
2021/09/02 01:48:22;;;;;;;8.38;6.60;;;25.00;45.60;;;;;;5040142;28;20531;-54
2021/09/02 01:50:48;;;;;;;8.05;6.68;;;25.00;45.60;;;;;;5074696;28;20029;-51
2021/09/02 01:53:15;;;;;;;10.52;6.70;;;25.00;45.60;;;;;;5073793;28;20056;-55
2021/09/02 01:55:42;;;;;;;9.50;6.50;;;24.90;45.60;;;;;;5074640;28;20033;-54
2021/09/02 01:58:08;;;;;;;10.25;7.00;;;24.90;45.60;;;;;;5055928;28;20452;-54
2021/09/02 02:00:35;;;;;;;9.73;6.93;;;24.90;45.60;;;;;;5056420;28;20119;-54
2021/09/02 02:03:01;;;;;;;9.07;6.95;;;25.00;45.60;;;;;;5055796;28;20024;-55
2021/09/02 02:05:26;;;;;;;8.85;6.43;;;24.90;45.60;;;;;;5056228;28;20362;-56
2021/09/02 02:07:52;;;;;;;8.45;6.43;;;24.90;45.60;;;;;;5073190;28;20381;-55
2021/09/02 02:10:22;;;;;;;10.93;6.90;;;24.90;45.70;;;;;;5073556;28;20025;-55
2021/09/02 02:12:48;;;;;;;9.70;6.78;;;24.90;45.70;;;;;;5074570;28;20031;-51
2021/09/02 02:15:14;;;;;;;9.65;7.00;;;24.90;45.70;;;;;;5073628;28;20029;-53
2021/09/02 02:17:41;;;;;;;9.57;6.93;;;24.90;45.70;;;;;;5074010;28;20103;-54
2021/09/02 02:20:08;;;;;;;9.77;7.07;;;24.90;45.80;;;;;;5073482;28;20021;-51
2021/09/02 02:22:34;;;;;;;8.18;6.75;;;24.90;45.80;;;;;;5073913;28;20031;-54
2021/09/02 02:25:00;;;;;;;10.23;6.18;;;24.90;45.80;;;;;;5072919;28;20064;-51
2021/09/02 02:27:25;;;;;;;10.68;6.47;;;24.90;45.80;;;;;;5073930;28;20020;-52
2021/09/02 02:29:51;;;;;;;11.23;7.40;;;24.90;45.80;;;;;;5073932;28;20489;-55
2021/09/02 02:32:17;;;;;;;9.80;6.75;;;24.90;45.80;;;;;;5072613;28;20120;-50
2021/09/02 02:34:42;;;;;;;10.10;6.68;;;24.90;45.90;;;;;;5073450;28;20024;-55
2021/09/02 02:37:08;;;;;;;16.73;11.93;;;24.90;45.90;;;;;;5072794;28;20028;-53
2021/09/02 02:39:38;;;;;;;17.90;13.23;;;25.00;46.00;;;;;;5055593;28;20040;-54
2021/09/02 02:42:08;;;;;;;16.40;12.85;;;25.00;45.90;;;;;;5072571;28;20021;-56
2021/09/02 02:44:35;;;;;;;17.98;14.63;;;25.00;45.90;;;;;;5073063;28;20086;-55
2021/09/02 02:47:01;;;;;;;21.58;18.00;;;25.00;45.80;;;;;;5072640;28;20346;-56
2021/09/02 02:49:27;;;;;;;15.30;11.48;;;25.10;45.80;;;;;;5072813;28;20507;-54
2021/09/02 02:51:53;;;;;;;13.93;10.68;;;25.10;45.80;;;;;;5072474;28;20119;-56
2021/09/02 02:54:19;;;;;;;11.48;9.23;;;25.10;45.70;;;;;;5072822;28;20036;-56
2021/09/02 02:56:45;;;;;;;10.45;8.50;;;25.10;45.60;;;;;;5073022;28;20017;-53
2021/09/02 02:59:10;;;;;;;9.18;7.13;;;25.10;45.60;;;;;;5072079;28;20127;-55
2021/09/02 03:01:37;;;;;;;8.85;7.45;;;25.20;45.60;;;;;;5054805;28;20487;-54
2021/09/02 03:04:03;;;;;;;9.05;6.80;;;25.20;45.50;;;;;;5053508;28;20055;-52
2021/09/02 03:06:29;;;;;;;10.32;6.60;;;25.20;45.50;;;;;;5071933;28;20422;-51
2021/09/02 03:08:55;;;;;;;10.60;7.28;;;25.30;45.50;;;;;;5071157;28;20101;-54
2021/09/02 03:11:21;;;;;;;9.15;6.22;;;25.30;45.40;;;;;;5072453;28;20024;-56
2021/09/02 03:13:47;;;;;;;11.63;6.57;;;25.30;45.40;;;;;;5054510;28;20137;-54
2021/09/02 03:16:12;;;;;;;8.77;6.20;;;25.30;45.30;;;;;;5053756;28;20051;-54
2021/09/02 03:18:38;;;;;;;8.70;6.60;;;25.30;45.30;;;;;;5072222;28;20433;-55
2021/09/02 03:21:04;;;;;;;7.53;6.22;;;25.30;45.30;;;;;;5053746;28;20028;-54
2021/09/02 03:23:29;;;;;;;9.32;6.50;;;25.30;45.20;;;;;;5054019;28;20377;-53
2021/09/02 03:25:55;;;;;;;9.15;7.03;;;25.30;45.90;;;;;;5071717;28;20033;-56
2021/09/02 03:28:21;;;;;;;9.20;6.47;;;25.40;45.30;;;;;;5072362;28;20024;-55
2021/09/02 03:30:47;;;;;;;9.10;6.18;;;25.30;45.20;;;;;;5071945;28;20537;-56
2021/09/02 03:33:14;;;;;;;10.13;6.47;;;25.40;45.20;;;;;;5053540;28;20028;-55
2021/09/02 03:35:40;;;;;;;7.70;6.65;;;25.40;45.20;;;;;;5054254;28;20029;-54
2021/09/02 03:38:06;;;;;;;7.28;6.18;;;25.40;45.20;;;;;;5071446;28;20027;-55
2021/09/02 03:40:50;;;;;;;8.27;6.43;;;25.40;45.20;;;;;;5071701;28;20484;-55
2021/09/02 03:43:20;;;;;;;10.55;6.80;;;25.40;45.20;;;;;;5071118;28;20086;-57
2021/09/02 03:45:46;;;;;;;8.85;6.68;;;25.50;45.10;;;;;;5071432;28;20036;-53
2021/09/02 03:48:12;;;;;;;8.63;6.57;;;25.50;45.10;;;;;;5053348;28;20031;-55
2021/09/02 03:50:38;;;;;;;7.30;6.30;;;25.50;45.10;;;;;;5037143;28;20025;-56
2021/09/02 03:53:03;;;;;;;11.02;6.90;;;25.40;45.10;;;;;;5070804;28;20024;-57
2021/09/02 03:55:29;;;;;;;9.10;6.78;;;25.50;45.10;;;;;;5071449;28;20040;-55
2021/09/02 03:57:55;;;;;;;7.13;5.93;;;25.50;45.10;;;;;;5071630;28;20029;-56
2021/09/02 04:00:21;;;;;;;8.30;6.68;;;25.50;45.10;;;;;;5071422;28;20047;-55
2021/09/02 04:02:46;;;;;;;7.25;6.38;;;25.50;45.00;;;;;;5071544;28;20412;-57
2021/09/02 04:05:12;;;;;;;8.07;6.53;;;25.50;45.00;;;;;;5070830;28;20029;-56
2021/09/02 04:07:38;;;;;;;8.95;6.78;;;25.50;45.00;;;;;;5071302;28;20358;-55
2021/09/02 04:10:05;;;;;;;9.82;6.93;;;25.50;45.00;;;;;;5052878;28;20035;-52
2021/09/02 04:12:31;;;;;;;8.48;6.53;;;25.50;45.00;;;;;;5071464;28;20377;-55
2021/09/02 04:14:57;;;;;;;7.93;6.32;;;25.60;45.10;;;;;;5071005;28;20025;-53
2021/09/02 04:17:23;;;;;;;8.00;6.90;;;25.60;45.00;;;;;;5071364;28;20450;-53
2021/09/02 04:19:48;;;;;;;8.95;5.90;;;25.60;45.00;;;;;;5071612;28;20090;-58
2021/09/02 04:22:14;;;;;;;7.30;6.40;;;25.50;44.80;;;;;;5070516;28;20029;-54
2021/09/02 04:24:40;;;;;;;8.88;6.70;;;25.60;45.00;;;;;;5071447;28;20076;-54
2021/09/02 04:27:06;;;;;;;8.82;6.63;;;25.50;44.90;;;;;;5070309;28;20021;-53
2021/09/02 04:29:31;;;;;;;9.75;6.32;;;25.50;44.90;;;;;;5070976;28;20078;-55
2021/09/02 04:31:57;;;;;;;7.80;6.63;;;25.60;44.90;;;;;;5069986;28;20100;-53
2021/09/02 04:34:24;;;;;;;7.30;5.90;;;25.50;44.90;;;;;;5071167;28;20040;-55
2021/09/02 04:36:49;;;;;;;9.40;6.53;;;25.60;44.90;;;;;;5070970;28;20051;-53
2021/09/02 04:39:15;;;;;;;9.63;6.40;;;25.60;44.90;;;;;;5070807;28;20310;-54
2021/09/02 04:41:41;;;;;;;8.32;6.72;;;25.60;44.90;;;;;;5071028;28;20025;-53
2021/09/02 04:44:07;;;;;;;9.23;7.28;;;25.60;44.90;;;;;;5070145;28;20553;-54
2021/09/02 04:46:32;;;;;;;8.00;6.50;;;25.60;44.90;;;;;;5052699;28;20031;-55
2021/09/02 04:48:58;;;;;;;9.15;6.80;;;25.60;45.00;;;;;;5052540;28;20107;-55
2021/09/02 04:51:24;;;;;;;9.18;7.13;;;25.60;44.90;;;;;;5071162;28;20024;-55
2021/09/02 04:53:49;;;;;;;9.68;7.30;;;25.60;44.90;;;;;;5070640;28;20035;-54
2021/09/02 04:56:15;;;;;;;13.13;7.05;;;25.60;44.90;;;;;;5070546;28;20177;-55
2021/09/02 04:58:41;;;;;;;7.50;6.38;;;25.60;44.90;;;;;;5071124;28;20093;-52
2021/09/02 05:01:06;;;;;;;8.98;6.55;;;25.60;44.90;;;;;;5070206;28;20025;-57
2021/09/02 05:03:32;;;;;;;10.30;7.38;;;25.60;44.90;;;;;;5070819;28;20028;-54
2021/09/02 05:05:58;;;;;;;7.93;6.68;;;25.60;44.90;;;;;;5070402;28;20036;-53
2021/09/02 05:08:24;;;;;;;7.63;6.57;;;25.60;44.90;;;;;;5070935;28;20055;-55
2021/09/02 05:10:50;;;;;;;7.88;6.35;;;25.60;44.80;;;;;;5070395;28;20071;-51
2021/09/02 05:13:16;;;;;;;8.82;7.20;;;25.60;44.90;;;;;;5070554;28;20033;-53
2021/09/02 05:15:42;;;;;;;8.68;6.90;;;25.60;44.90;;;;;;5070741;28;20031;-59
2021/09/02 05:18:07;;;;;;;9.35;6.63;;;25.60;44.90;;;;;;5052020;28;20025;-55
2021/09/02 05:20:33;;;;;;;9.60;6.25;;;25.60;44.90;;;;;;5052719;28;20363;-55
2021/09/02 05:22:59;;;;;;;10.10;7.30;;;25.60;44.80;;;;;;5069530;28;20049;-53
2021/09/02 05:25:25;;;;;;;7.60;6.50;;;25.60;44.90;;;;;;5070385;28;20029;-55
2021/09/02 05:27:51;;;;;;;12.38;7.68;;;25.60;44.90;;;;;;5070174;28;20073;-55
2021/09/02 05:30:17;;;;;;;9.73;6.85;;;25.60;44.90;;;;;;5069649;28;20243;-51
2021/09/02 05:32:43;;;;;;;9.70;7.20;;;25.60;44.80;;;;;;5070601;28;20032;-54
2021/09/02 05:35:10;;;;;;;9.48;6.93;;;25.60;44.80;;;;;;5070131;28;20032;-55
2021/09/02 05:37:35;;;;;;;9.10;6.72;;;25.70;45.50;;;;;;5052438;28;20093;-55
2021/09/02 05:40:02;;;;;;;9.27;7.55;;;25.60;44.70;;;;;;5069947;28;20028;-56
2021/09/02 05:42:27;;;;;;;11.50;7.57;;;25.60;44.80;;;;;;5070327;28;20032;-53
2021/09/02 05:44:53;;;;;;;17.50;8.15;;;25.70;44.90;;;;;;5072685;28;20042;-51
2021/09/02 05:47:19;;;;;;;20.17;8.40;;;25.70;44.90;;;;;;5055398;28;20071;-53
2021/09/02 05:49:44;;;;;;;19.55;7.97;;;25.70;44.90;;;;;;5073687;28;20055;-54
2021/09/02 05:52:10;;;;;;;18.38;8.88;;;25.70;44.80;;;;;;5054975;28;20028;-51
2021/09/02 05:54:55;;;;;;;19.48;9.23;;;25.70;44.90;;;;;;5073827;28;20029;-55
2021/09/02 05:57:22;;;;;;;28.90;9.70;;;25.70;44.80;;;;;;5055388;28;20021;-55
2021/09/02 05:59:48;;;;;;;27.77;8.88;;;25.70;44.80;;;;;;5055664;28;20386;-53
2021/09/02 06:02:13;;;;;;;19.75;9.25;;;25.70;44.80;;;;;;5055241;28;20021;-55
2021/09/02 06:04:39;;;;;;;25.17;10.73;;;25.70;44.90;;;;;;5073727;28;20357;-53
2021/09/02 06:07:05;;;;;;;29.15;9.63;;;25.70;44.90;;;;;;5055305;28;20225;-55
2021/09/02 06:09:30;;;;;;;26.52;9.15;;;25.70;44.80;;;;;;5073557;28;20111;-55
2021/09/02 06:11:56;;;;;;;27.52;9.25;;;25.70;44.80;;;;;;5055726;28;20024;-55
2021/09/02 06:14:22;;;;;;;35.95;10.80;;;25.70;44.80;;;;;;5054788;28;20036;-56
2021/09/02 06:16:47;;;;;;;35.33;10.73;;;25.70;44.80;;;;;;5073309;28;20410;-54
2021/09/02 06:19:13;;;;;;;32.00;10.00;;;25.70;44.80;;;;;;5072382;28;20024;-57
2021/09/02 06:21:39;;;;;;;34.42;10.70;;;25.70;44.80;;;;;;5073243;28;20029;-53
2021/09/02 06:24:05;;;;;;;33.22;9.50;;;25.70;44.80;;;;;;5054606;28;20052;-56
2021/09/02 06:26:31;;;;;;;32.63;10.02;;;25.70;44.90;;;;;;5055303;28;20057;-56
2021/09/02 06:28:56;;;;;;;26.88;9.45;;;25.70;44.80;;;;;;5055166;28;20024;-55
2021/09/02 06:31:22;;;;;;;22.23;9.70;;;25.70;44.80;;;;;;5054748;28;20048;-53
2021/09/02 06:33:48;;;;;;;28.27;9.10;;;25.70;44.80;;;;;;5055392;28;20025;-53
2021/09/02 06:36:13;;;;;;;30.00;10.23;;;25.70;44.80;;;;;;5055049;28;20028;-53
2021/09/02 06:38:39;;;;;;;40.25;10.45;;;25.70;44.80;;;;;;5073588;28;20100;-53
2021/09/02 06:41:04;;;;;;;54.38;12.13;;;25.80;44.80;;;;;;5072724;28;20025;-48
2021/09/02 06:43:30;;;;;;;38.65;11.85;;;25.80;44.80;;;;;;5073623;28;20498;-54
2021/09/02 06:45:56;;;;;;;42.13;12.88;;;25.80;44.90;;;;;;5054948;28;20504;-50
2021/09/02 06:48:21;;;;;;;43.97;12.48;;;25.70;44.80;;;;;;5072496;28;20028;-49
2021/09/02 06:50:47;;;;;;;58.72;13.15;;;25.70;44.80;;;;;;5054750;28;20028;-50
2021/09/02 06:53:13;;;;;;;49.63;13.02;;;25.70;44.80;;;;;;5072430;28;20027;-52
2021/09/02 06:55:38;;;;;;;37.08;12.27;;;25.70;44.80;;;;;;5072470;28;20051;-53
2021/09/02 06:58:04;;;;;;;41.72;11.90;;;25.60;45.40;;;;;;5072390;28;20494;-53
2021/09/02 07:00:30;;;;;;;40.28;12.38;;;25.60;44.70;;;;;;5072863;28;20493;-52
2021/09/02 07:02:55;;;;;;;40.47;12.50;;;25.60;44.80;;;;;;5054961;28;20048;-54
2021/09/02 07:05:22;;;;;;;45.47;12.20;;;25.60;44.90;;;;;;5072364;28;20595;-55
2021/09/02 07:07:48;;;;;;;50.60;13.18;;;25.60;44.90;;;;;;5072816;28;20028;-56
2021/09/02 07:10:14;;;;;;;47.47;11.98;;;25.50;44.90;;;;;;5054052;28;20027;-52
2021/09/02 07:12:40;;;;;;;53.45;13.25;;;25.60;45.00;;;;;;5054475;28;20028;-55
2021/09/02 07:15:06;;;;;;;28.23;11.18;;;25.50;45.10;;;;;;5071864;28;20499;-54
2021/09/02 07:17:32;;;;;;;46.17;13.98;;;25.50;45.10;;;;;;5054500;28;20021;-52
2021/09/02 07:19:59;;;;;;;41.53;12.10;;;25.50;45.10;;;;;;5054342;28;20335;-52
2021/09/02 07:22:24;;;;;;;57.88;13.73;;;25.50;45.10;;;;;;5071643;28;20071;-51
2021/09/02 07:24:50;;;;;;;47.42;14.20;;;25.50;45.20;;;;;;5072285;28;20467;-50
2021/09/02 07:27:16;;;;;;;59.35;13.55;;;25.50;45.20;;;;;;5071665;28;20466;-49
2021/09/02 07:29:42;;;;;;;39.55;10.82;;;25.60;45.20;;;;;;5054250;28;20081;-54
2021/09/02 07:32:08;;;;;;;23.55;11.20;;;25.50;45.20;;;;;;5071263;28;20112;-53
2021/09/02 07:34:34;;;;;;;27.40;10.38;;;25.50;45.20;;;;;;5072635;28;20059;-52
2021/09/02 07:37:00;;;;;;;23.13;10.25;;;25.50;45.20;;;;;;5072037;28;20055;-51
2021/09/02 07:39:26;;;;;;;21.92;9.10;;;25.50;45.20;;;;;;5053472;28;20064;-53
2021/09/02 07:41:52;;;;;;;21.00;9.15;;;25.60;45.20;;;;;;5072216;28;20126;-53
2021/09/02 07:44:17;;;;;;;19.13;9.15;;;25.60;45.10;;;;;;5071295;28;20036;-53
2021/09/02 07:46:43;;;;;;;16.95;8.18;;;25.60;45.00;;;;;;5071974;28;20103;-54
2021/09/02 07:49:09;;;;;;;14.60;8.30;;;25.60;44.90;;;;;;5071823;28;20095;-54
2021/09/02 07:51:34;;;;;;;16.35;8.40;;;25.60;45.60;;;;;;5072122;28;20033;-52
2021/09/02 07:54:00;;;;;;;19.40;8.10;;;25.60;44.90;;;;;;5053987;28;20032;-54
2021/09/02 07:56:26;;;;;;;16.52;8.23;;;25.60;44.90;;;;;;5070726;28;20224;-54
2021/09/02 07:58:51;;;;;;;13.80;7.72;;;25.60;45.00;;;;;;5071643;28;20024;-53
2021/09/02 08:01:22;;;;;;;13.57;7.97;;;25.60;45.00;;;;;;5068958;28;20195;-50
2021/09/02 08:03:48;;;;;;;16.80;8.10;;;25.60;45.00;;;;;;5071775;28;20059;-56
2021/09/02 08:06:14;;;;;;;17.58;8.38;;;25.50;45.00;;;;;;5070560;28;20481;-52
2021/09/02 08:08:40;;;;;;;19.00;8.43;;;25.60;45.10;;;;;;5064011;28;20063;-54
2021/09/02 08:11:05;;;;;;;13.02;7.90;;;25.60;45.10;;;;;;5053211;28;20031;-55
2021/09/02 08:13:32;;;;;;;15.20;7.82;;;25.60;45.00;;;;;;5052914;28;20035;-53
2021/09/02 08:15:57;;;;;;;13.85;7.70;;;25.60;45.00;;;;;;5069028;28;20044;-54
2021/09/02 08:18:23;;;;;;;12.77;7.57;;;25.60;45.00;;;;;;5070912;28;20111;-55
2021/09/02 08:20:49;;;;;;;10.48;7.28;;;25.60;45.00;;;;;;5050994;28;20115;-55
2021/09/02 08:23:15;;;;;;;13.18;7.75;;;25.60;45.10;;;;;;5070314;28;20063;-55
2021/09/02 08:25:41;;;;;;;17.00;8.10;;;25.60;45.00;;;;;;5050683;28;20458;-49
2021/09/02 08:28:08;;;;;;;53.15;10.07;;;25.60;45.00;;;;;;5052972;28;20453;-54
2021/09/02 08:30:34;;;;;;;23.05;9.35;;;25.60;45.00;;;;;;5052897;28;20037;-55
2021/09/02 08:33:00;;;;;;;23.67;10.40;;;25.60;45.00;;;;;;5068860;28;20024;-51
2021/09/02 08:35:29;;;;;;;29.83;8.98;;;25.60;45.00;;;;;;5050254;28;20032;-53
2021/09/02 08:38:01;;;;;;;27.85;9.52;;;25.60;45.00;;;;;;5070149;28;20020;-52
2021/09/02 08:40:31;;;;;;;24.02;9.45;;;25.60;45.00;;;;;;5063969;28;20104;-55
2021/09/02 08:42:58;;;;;;;29.20;9.02;;;25.60;44.80;;;;;;5069264;28;20032;-54
2021/09/02 08:45:26;;;;;;;40.42;9.82;;;25.60;44.70;;;;;;5070253;28;20044;-49
2021/09/02 08:47:52;;;;;;;28.23;9.38;;;25.70;44.70;;;;;;5050694;28;20033;-53
2021/09/02 08:50:24;;;;;;;41.30;11.48;;;25.70;44.60;;;;;;5070261;28;20485;-54
2021/09/02 08:52:51;;;;;;;33.85;10.25;;;25.60;44.60;;;;;;5070395;28;20031;-55
2021/09/02 08:55:17;;;;;;;24.67;8.35;;;25.70;45.20;;;;;;5049320;28;20200;-55
2021/09/02 08:57:47;;;;;;;30.60;8.75;;;25.70;45.10;;;;;;5070148;28;20032;-52
2021/09/02 09:00:13;;;;;;;34.70;9.13;;;25.70;44.50;;;;;;5067921;28;20145;-50
2021/09/02 09:02:47;;;;;;;34.88;9.30;;;25.80;44.50;;;;;;5070713;28;20166;-52
2021/09/02 09:05:16;;;;;;;37.35;10.07;;;25.70;44.40;;;;;;5050009;28;20032;-53
2021/09/02 09:07:47;;;;;;;30.92;9.77;;;25.80;44.50;;;;;;5052239;28;20363;-54
2021/09/02 09:10:35;;;;;;;30.10;9.07;;;25.80;44.40;;;;;;5067881;28;20496;-54
2021/09/02 09:13:05;;;;;;;27.27;8.05;;;25.80;44.50;;;;;;5051601;28;20028;-52
2021/09/02 09:15:38;;;;;;;38.67;8.90;;;25.80;44.50;;;;;;5068843;28;20028;-53
2021/09/02 09:18:24;;;;;;;41.20;11.68;;;25.80;44.50;;;;;;5071241;28;20021;-51
2021/09/02 09:21:19;;;;;;;45.25;11.18;;;25.80;44.50;;;;;;5072496;28;20036;-53
2021/09/02 09:23:51;;;;;;;46.20;10.38;;;25.80;44.50;;;;;;5052085;28;20496;-55
2021/09/02 09:26:17;;;;;;;34.90;10.05;;;25.80;44.50;;;;;;5072157;28;20036;-52
2021/09/02 09:28:43;;;;;;;33.97;9.93;;;25.90;44.60;;;;;;5055296;28;20044;-55
2021/09/02 09:31:32;;;;;;;39.15;10.02;;;25.90;44.60;;;;;;5071235;28;20358;-56
2021/09/02 09:34:00;;;;;;;32.78;10.13;;;25.90;44.60;;;;;;5072514;28;20035;-47
2021/09/02 09:36:29;;;;;;;38.00;10.25;;;25.90;44.50;;;;;;5071552;28;20029;-52
2021/09/02 09:39:02;;;;;;;46.75;10.55;;;26.00;44.60;;;;;;5054538;28;20148;-48
2021/09/02 09:41:44;;;;;;;47.72;10.60;;;26.00;44.50;;;;;;5072009;28;20031;-50
2021/09/02 09:44:26;;;;;;;42.10;11.60;;;26.00;44.50;;;;;;5053949;28;20036;-52
2021/09/02 09:47:13;;;;;;;30.10;9.95;;;26.00;44.50;;;;;;5054739;28;20074;-49
2021/09/02 09:49:49;;;;;;;43.10;11.30;;;26.00;44.50;;;;;;5052352;28;20025;-45
2021/09/02 09:52:27;;;;;;;41.88;11.52;;;26.00;44.50;;;;;;5069179;28;20052;-47
2021/09/02 09:55:02;;;;;;;29.75;9.90;;;26.10;44.60;;;;;;5069079;28;20385;-46
2021/09/02 09:57:30;;;;;;;34.88;9.90;;;26.10;44.60;;;;;;5071975;28;20031;-50
2021/09/02 10:00:01;;;;;;;29.30;9.82;;;26.10;44.60;;;;;;5053849;28;20024;-52
2021/09/02 10:02:27;;;;;;;28.95;9.20;;;26.10;44.60;;;;;;5068798;28;20028;-50
2021/09/02 10:04:54;;;;;;;34.30;9.35;;;26.20;44.60;;;;;;5070783;28;20029;-50
2021/09/02 10:07:21;;;;;;;41.13;9.88;;;26.20;44.70;;;;;;5062472;28;20251;-49
2021/09/02 10:09:50;;;;;;;37.90;9.57;;;26.20;44.70;;;;;;5067829;28;20021;-53
2021/09/02 10:12:16;;;;;;;25.65;8.60;;;26.20;44.80;;;;;;5071287;28;20094;-50
2021/09/02 10:14:42;;;;;;;30.27;8.80;;;26.20;44.70;;;;;;5053261;28;20031;-50
2021/09/02 10:17:18;;;;;;;25.02;8.88;;;26.20;44.70;;;;;;5052940;28;20020;-52
2021/09/02 10:19:45;;;;;;;26.55;8.50;;;26.20;44.80;;;;;;5052432;28;20032;-54
2021/09/02 10:22:12;;;;;;;29.33;8.63;;;26.20;44.70;;;;;;5050921;28;20021;-53
2021/09/02 10:24:40;;;;;;;28.17;9.02;;;26.20;44.70;;;;;;5053552;28;20040;-53
2021/09/02 10:27:18;;;;;;;26.80;9.10;;;26.20;44.80;;;;;;5053662;28;20178;-54
2021/09/02 10:29:45;;;;;;;25.58;8.23;;;26.20;44.80;;;;;;5069518;28;20047;-55
2021/09/02 10:32:22;;;;;;;20.83;8.88;;;26.30;44.80;;;;;;5069413;28;20469;-51
2021/09/02 10:34:53;;;;;;;21.77;8.57;;;26.20;45.50;;;;;;5053743;28;20218;-52
2021/09/02 10:37:49;;;;;;;17.25;7.82;;;26.30;44.90;;;;;;5071292;28;20469;-53
2021/09/02 10:40:18;;;;;;;22.40;8.32;;;26.30;45.00;;;;;;5047369;28;20251;-50
2021/09/02 10:42:44;;;;;;;23.25;6.95;;;26.30;44.90;;;;;;5052456;28;20047;-49
2021/09/02 10:45:25;;;;;;;18.85;7.93;;;26.30;44.90;;;;;;5068364;28;20032;-52
2021/09/02 10:48:04;;;;;;;18.92;8.18;;;26.20;44.90;;;;;;5053514;28;20024;-47
2021/09/02 10:50:42;;;;;;;19.92;7.78;;;26.30;44.80;;;;;;5069504;28;20090;-50
2021/09/02 10:53:13;;;;;;;17.00;8.23;;;26.30;44.80;;;;;;5068861;28;20029;-50
2021/09/02 10:55:48;;;;;;;16.83;7.38;;;26.30;44.70;;;;;;5071189;28;20207;-47
2021/09/02 10:58:34;;;;;;;16.90;7.82;;;26.30;44.70;;;;;;5068371;28;20035;-48
2021/09/02 11:01:22;;;;;;;16.60;8.38;;;26.30;44.70;;;;;;5038070;28;20033;-48
2021/09/02 11:03:49;;;;;;;16.50;7.97;;;26.30;44.70;;;;;;5051088;28;20020;-49
2021/09/02 11:06:15;;;;;;;15.73;8.18;;;26.40;44.70;;;;;;5052625;28;20032;-46
2021/09/02 11:08:41;;;;;;;13.93;7.90;;;26.40;44.70;;;;;;5068405;28;20024;-48
2021/09/02 11:11:11;;;;;;;13.70;7.93;;;26.30;44.60;;;;;;5052202;28;20025;-46
2021/09/02 11:13:37;;;;;;;14.25;7.20;;;26.30;44.60;;;;;;5071051;28;20029;-48
2021/09/02 11:16:12;;;;;;;13.27;7.53;;;26.30;44.40;;;;;;5070571;28;20029;-46
2021/09/02 11:19:00;;;;;;;21.50;8.20;;;26.40;45.20;;;;;;5071090;28;20024;-51
2021/09/02 11:21:28;;;;;;;22.92;8.25;;;26.30;44.40;;;;;;5071268;28;20134;-45
2021/09/02 11:23:57;;;;;;;14.95;7.70;;;26.40;44.50;;;;;;5036979;28;20242;-47
2021/09/02 11:26:35;;;;;;;15.27;7.80;;;26.40;44.50;;;;;;5052398;28;20178;-49
2021/09/02 11:29:02;;;;;;;23.77;8.65;;;26.30;44.30;;;;;;5052396;28;20025;-47
2021/09/02 11:31:28;;;;;;;18.90;8.43;;;26.40;44.30;;;;;;5053506;28;20028;-50
2021/09/02 11:33:55;;;;;;;24.08;7.90;;;26.40;44.30;;;;;;5052951;28;20036;-46
2021/09/02 11:36:21;;;;;;;16.27;8.35;;;26.40;44.20;;;;;;5069705;28;20156;-46
2021/09/02 11:38:48;;;;;;;18.10;8.50;;;26.40;44.10;;;;;;5069499;28;20052;-49
2021/09/02 11:41:23;;;;;;;20.05;8.30;;;26.40;44.10;;;;;;5050310;28;20401;-47
2021/09/02 11:43:53;;;;;;;27.90;8.63;;;26.40;44.00;;;;;;5070534;28;20024;-48
2021/09/02 11:46:19;;;;;;;22.10;8.07;;;26.40;43.90;;;;;;5051589;28;20032;-50
2021/09/02 11:48:49;;;;;;;19.85;7.93;;;26.40;43.80;;;;;;5070624;28;20043;-51
2021/09/02 11:51:32;;;;;;;20.83;7.15;;;26.40;43.80;;;;;;5051837;28;20028;-50
2021/09/02 11:54:08;;;;;;;19.10;7.50;;;26.40;43.80;;;;;;5070772;28;20036;-52
2021/09/02 11:56:34;;;;;;;19.40;7.85;;;26.40;43.70;;;;;;5071218;28;20032;-49
2021/09/02 11:59:01;;;;;;;18.60;7.63;;;26.40;43.60;;;;;;5070078;28;20377;-47
2021/09/02 12:01:28;;;;;;;17.33;6.85;;;26.40;43.60;;;;;;5046438;28;20029;-53
2021/09/02 12:03:54;;;;;;;17.75;7.43;;;26.40;43.60;;;;;;5051164;28;20421;-51
2021/09/02 12:06:29;;;;;;;19.20;7.80;;;26.40;43.60;;;;;;5068210;28;20224;-47
2021/09/02 12:08:58;;;;;;;15.93;8.85;;;26.40;43.70;;;;;;5068868;28;20111;-48
2021/09/02 12:11:25;;;;;;;21.92;9.15;;;26.40;43.60;;;;;;5050579;28;20235;-47
2021/09/02 12:13:57;;;;;;;14.23;8.55;;;26.40;43.60;;;;;;5051624;28;20338;-54
2021/09/02 12:16:32;;;;;;;13.20;8.27;;;26.40;43.60;;;;;;5051615;28;20024;-47
2021/09/02 12:18:59;;;;;;;15.30;7.85;;;26.40;43.40;;;;;;5069658;28;20101;-51
2021/09/02 12:21:31;;;;;;;13.88;7.75;;;26.40;44.10;;;;;;5050083;28;20033;-47
2021/09/02 12:23:59;;;;;;;15.05;8.82;;;26.40;43.50;;;;;;5068290;28;20127;-50
2021/09/02 12:26:42;;;;;;;14.70;8.05;;;26.40;43.50;;;;;;5068121;28;20213;-49
2021/09/02 12:29:13;;;;;;;13.60;8.00;;;26.40;43.40;;;;;;5068207;28;20062;-47
2021/09/02 12:31:39;;;;;;;12.45;8.02;;;26.40;43.40;;;;;;5069143;28;20123;-45
2021/09/02 12:34:33;;;;;;;13.85;7.32;;;26.40;43.40;;;;;;5069595;28;20488;-50
2021/09/02 12:37:09;;;;;;;17.38;7.40;;;26.40;43.40;;;;;;5051393;28;20071;-47
2021/09/02 12:39:36;;;;;;;10.93;7.60;;;26.40;43.40;;;;;;5069703;28;20127;-48
2021/09/02 12:42:07;;;;;;;11.38;7.03;;;26.40;43.30;;;;;;5069247;28;20025;-47